sensor_id;sensor_type;location;lat;lon;timestamp;temperature;humidity
63537;DHT22;49686;51.880;5.632;2023-08-01T00:02:08;16.10;99.90
63537;DHT22;49686;51.880;5.632;2023-08-01T00:04:35;16.10;99.90
63537;DHT22;49686;51.880;5.632;2023-08-01T00:07:03;16.10;99.90
63537;DHT22;49686;51.880;5.632;2023-08-01T00:09:30;16.10;99.90
63537;DHT22;49686;51.880;5.632;2023-08-01T00:11:57;16.10;99.90
63537;DHT22;49686;51.880;5.632;2023-08-01T00:14:24;16.10;99.90
63537;DHT22;49686;51.880;5.632;2023-08-01T00:16:51;16.10;99.90
63537;DHT22;49686;51.880;5.632;2023-08-01T00:19:18;16.10;99.90
63537;DHT22;49686;51.880;5.632;2023-08-01T00:21:45;16.10;99.90
63537;DHT22;49686;51.880;5.632;2023-08-01T00:24:13;16.10;99.90
63537;DHT22;49686;51.880;5.632;2023-08-01T00:26:40;16.10;99.90
63537;DHT22;49686;51.880;5.632;2023-08-01T00:29:07;16.10;99.90
63537;DHT22;49686;51.880;5.632;2023-08-01T00:31:34;16.10;99.90
63537;DHT22;49686;51.880;5.632;2023-08-01T00:34:01;16.10;99.90
63537;DHT22;49686;51.880;5.632;2023-08-01T00:36:29;16.10;99.90
63537;DHT22;49686;51.880;5.632;2023-08-01T00:38:56;16.00;99.90
63537;DHT22;49686;51.880;5.632;2023-08-01T00:41:24;16.00;99.90
63537;DHT22;49686;51.880;5.632;2023-08-01T00:43:50;16.00;99.90
63537;DHT22;49686;51.880;5.632;2023-08-01T00:46:17;16.00;99.90
63537;DHT22;49686;51.880;5.632;2023-08-01T00:48:44;16.00;99.90
63537;DHT22;49686;51.880;5.632;2023-08-01T00:51:12;16.00;99.90
63537;DHT22;49686;51.880;5.632;2023-08-01T00:53:39;16.00;99.90
63537;DHT22;49686;51.880;5.632;2023-08-01T00:56:07;16.00;99.90
63537;DHT22;49686;51.880;5.632;2023-08-01T00:58:37;16.00;99.90
63537;DHT22;49686;51.880;5.632;2023-08-01T01:01:04;15.90;99.90
63537;DHT22;49686;51.880;5.632;2023-08-01T01:03:31;15.90;99.90
63537;DHT22;49686;51.880;5.632;2023-08-01T01:06:10;15.80;99.90
63537;DHT22;49686;51.880;5.632;2023-08-01T01:08:39;15.70;99.90
63537;DHT22;49686;51.880;5.632;2023-08-01T01:11:06;15.60;99.90
63537;DHT22;49686;51.880;5.632;2023-08-01T01:13:33;15.60;99.90
63537;DHT22;49686;51.880;5.632;2023-08-01T01:16:01;15.60;99.90
63537;DHT22;49686;51.880;5.632;2023-08-01T01:18:28;15.50;99.90
63537;DHT22;49686;51.880;5.632;2023-08-01T01:20:56;15.50;99.90
63537;DHT22;49686;51.880;5.632;2023-08-01T01:23:24;15.60;99.90
63537;DHT22;49686;51.880;5.632;2023-08-01T01:25:51;15.60;99.90
63537;DHT22;49686;51.880;5.632;2023-08-01T01:28:20;15.60;99.90
63537;DHT22;49686;51.880;5.632;2023-08-01T01:30:48;15.60;99.90
63537;DHT22;49686;51.880;5.632;2023-08-01T01:33:15;15.60;99.90
63537;DHT22;49686;51.880;5.632;2023-08-01T01:35:42;15.60;99.90
63537;DHT22;49686;51.880;5.632;2023-08-01T01:38:10;15.60;99.90
63537;DHT22;49686;51.880;5.632;2023-08-01T01:40:37;15.60;99.90
63537;DHT22;49686;51.880;5.632;2023-08-01T01:43:04;15.50;99.90
63537;DHT22;49686;51.880;5.632;2023-08-01T01:45:31;15.50;99.90
63537;DHT22;49686;51.880;5.632;2023-08-01T01:47:58;15.50;99.90
63537;DHT22;49686;51.880;5.632;2023-08-01T01:50:25;15.50;99.90
63537;DHT22;49686;51.880;5.632;2023-08-01T01:52:51;15.40;99.90
63537;DHT22;49686;51.880;5.632;2023-08-01T01:55:20;15.40;99.90
63537;DHT22;49686;51.880;5.632;2023-08-01T01:57:46;15.40;99.90
63537;DHT22;49686;51.880;5.632;2023-08-01T02:00:14;15.30;99.90
63537;DHT22;49686;51.880;5.632;2023-08-01T02:02:40;15.30;99.90
63537;DHT22;49686;51.880;5.632;2023-08-01T02:05:07;15.20;99.90
63537;DHT22;49686;51.880;5.632;2023-08-01T02:07:34;15.20;99.90
63537;DHT22;49686;51.880;5.632;2023-08-01T02:10:01;15.20;99.90
63537;DHT22;49686;51.880;5.632;2023-08-01T02:12:29;15.20;99.90
63537;DHT22;49686;51.880;5.632;2023-08-01T02:14:56;15.20;99.90
63537;DHT22;49686;51.880;5.632;2023-08-01T02:17:23;15.20;99.90
63537;DHT22;49686;51.880;5.632;2023-08-01T02:19:50;15.20;99.90
63537;DHT22;49686;51.880;5.632;2023-08-01T02:22:17;15.20;99.90
63537;DHT22;49686;51.880;5.632;2023-08-01T02:24:44;15.20;99.90
63537;DHT22;49686;51.880;5.632;2023-08-01T02:27:10;15.20;99.90
63537;DHT22;49686;51.880;5.632;2023-08-01T02:29:39;15.20;99.90
63537;DHT22;49686;51.880;5.632;2023-08-01T02:32:06;15.20;99.90
63537;DHT22;49686;51.880;5.632;2023-08-01T02:34:33;15.20;99.90
63537;DHT22;49686;51.880;5.632;2023-08-01T02:37:00;15.20;99.90
63537;DHT22;49686;51.880;5.632;2023-08-01T02:39:26;15.10;99.90
63537;DHT22;49686;51.880;5.632;2023-08-01T02:41:53;15.20;99.90
63537;DHT22;49686;51.880;5.632;2023-08-01T02:44:20;15.10;99.90
63537;DHT22;49686;51.880;5.632;2023-08-01T02:46:50;15.20;99.90
63537;DHT22;49686;51.880;5.632;2023-08-01T02:49:17;15.20;99.90
63537;DHT22;49686;51.880;5.632;2023-08-01T02:51:44;15.20;99.90
63537;DHT22;49686;51.880;5.632;2023-08-01T02:54:11;15.30;99.90
63537;DHT22;49686;51.880;5.632;2023-08-01T02:56:38;15.30;99.90
63537;DHT22;49686;51.880;5.632;2023-08-01T02:59:05;15.40;99.90
63537;DHT22;49686;51.880;5.632;2023-08-01T03:01:33;15.40;99.90
63537;DHT22;49686;51.880;5.632;2023-08-01T03:04:01;15.40;99.90
63537;DHT22;49686;51.880;5.632;2023-08-01T03:06:28;15.40;99.90
63537;DHT22;49686;51.880;5.632;2023-08-01T03:08:55;15.40;99.90
63537;DHT22;49686;51.880;5.632;2023-08-01T03:11:22;15.40;99.90
63537;DHT22;49686;51.880;5.632;2023-08-01T03:13:49;15.40;99.90
63537;DHT22;49686;51.880;5.632;2023-08-01T03:16:15;15.40;99.90
63537;DHT22;49686;51.880;5.632;2023-08-01T03:18:42;15.30;99.90
63537;DHT22;49686;51.880;5.632;2023-08-01T03:21:10;15.30;99.90
63537;DHT22;49686;51.880;5.632;2023-08-01T03:23:37;15.30;99.90
63537;DHT22;49686;51.880;5.632;2023-08-01T03:26:04;15.30;99.90
63537;DHT22;49686;51.880;5.632;2023-08-01T03:28:33;15.30;99.90
63537;DHT22;49686;51.880;5.632;2023-08-01T03:31:00;15.30;99.90
63537;DHT22;49686;51.880;5.632;2023-08-01T03:33:27;15.30;99.90
63537;DHT22;49686;51.880;5.632;2023-08-01T03:35:54;15.30;99.90
63537;DHT22;49686;51.880;5.632;2023-08-01T03:38:22;15.30;99.90
63537;DHT22;49686;51.880;5.632;2023-08-01T03:40:49;15.30;99.90
63537;DHT22;49686;51.880;5.632;2023-08-01T03:43:16;15.30;99.90
63537;DHT22;49686;51.880;5.632;2023-08-01T03:45:42;15.40;99.90
63537;DHT22;49686;51.880;5.632;2023-08-01T03:48:09;15.30;99.90
63537;DHT22;49686;51.880;5.632;2023-08-01T03:50:36;15.30;99.90
63537;DHT22;49686;51.880;5.632;2023-08-01T03:53:03;15.40;99.90
63537;DHT22;49686;51.880;5.632;2023-08-01T03:55:31;15.40;99.90
63537;DHT22;49686;51.880;5.632;2023-08-01T03:57:58;15.40;99.90
63537;DHT22;49686;51.880;5.632;2023-08-01T04:00:25;15.40;99.90
63537;DHT22;49686;51.880;5.632;2023-08-01T04:02:52;15.30;99.90
63537;DHT22;49686;51.880;5.632;2023-08-01T04:05:19;15.30;99.90
63537;DHT22;49686;51.880;5.632;2023-08-01T04:07:45;15.30;99.90
63537;DHT22;49686;51.880;5.632;2023-08-01T04:10:12;15.30;99.90
63537;DHT22;49686;51.880;5.632;2023-08-01T04:12:41;15.30;99.90
63537;DHT22;49686;51.880;5.632;2023-08-01T04:15:08;15.30;99.90
63537;DHT22;49686;51.880;5.632;2023-08-01T04:17:35;15.30;99.90
63537;DHT22;49686;51.880;5.632;2023-08-01T04:20:02;15.30;99.90
63537;DHT22;49686;51.880;5.632;2023-08-01T04:22:29;15.40;99.90
63537;DHT22;49686;51.880;5.632;2023-08-01T04:24:55;15.40;99.90
63537;DHT22;49686;51.880;5.632;2023-08-01T04:27:22;15.30;99.90
63537;DHT22;49686;51.880;5.632;2023-08-01T04:29:51;15.40;99.90
63537;DHT22;49686;51.880;5.632;2023-08-01T04:32:18;15.40;99.90
63537;DHT22;49686;51.880;5.632;2023-08-01T04:34:45;15.40;99.90
63537;DHT22;49686;51.880;5.632;2023-08-01T04:37:12;15.40;99.90
63537;DHT22;49686;51.880;5.632;2023-08-01T04:39:39;15.40;99.90
63537;DHT22;49686;51.880;5.632;2023-08-01T04:42:06;15.40;99.90
63537;DHT22;49686;51.880;5.632;2023-08-01T04:44:33;15.40;99.90
63537;DHT22;49686;51.880;5.632;2023-08-01T04:47:01;15.40;99.90
63537;DHT22;49686;51.880;5.632;2023-08-01T04:49:28;15.40;99.90
63537;DHT22;49686;51.880;5.632;2023-08-01T04:51:55;15.40;99.90
63537;DHT22;49686;51.880;5.632;2023-08-01T04:54:22;15.40;99.90
63537;DHT22;49686;51.880;5.632;2023-08-01T04:56:49;15.50;99.90
63537;DHT22;49686;51.880;5.632;2023-08-01T04:59:16;15.60;99.90
63537;DHT22;49686;51.880;5.632;2023-08-01T05:01:43;15.60;99.90
63537;DHT22;49686;51.880;5.632;2023-08-01T05:04:11;15.70;99.90
63537;DHT22;49686;51.880;5.632;2023-08-01T05:06:38;15.60;99.90
63537;DHT22;49686;51.880;5.632;2023-08-01T05:09:05;15.60;99.90
63537;DHT22;49686;51.880;5.632;2023-08-01T05:11:31;15.70;99.90
63537;DHT22;49686;51.880;5.632;2023-08-01T05:13:58;15.60;99.90
63537;DHT22;49686;51.880;5.632;2023-08-01T05:16:25;15.70;99.90
63537;DHT22;49686;51.880;5.632;2023-08-01T05:18:52;15.70;99.90
63537;DHT22;49686;51.880;5.632;2023-08-01T05:21:20;15.80;99.90
63537;DHT22;49686;51.880;5.632;2023-08-01T05:23:47;15.70;99.90
63537;DHT22;49686;51.880;5.632;2023-08-01T05:26:14;15.80;99.90
63537;DHT22;49686;51.880;5.632;2023-08-01T05:28:41;15.70;99.90
63537;DHT22;49686;51.880;5.632;2023-08-01T05:31:08;15.80;99.90
63537;DHT22;49686;51.880;5.632;2023-08-01T05:33:35;15.80;99.90
63537;DHT22;49686;51.880;5.632;2023-08-01T05:36:01;15.90;99.90
63537;DHT22;49686;51.880;5.632;2023-08-01T05:38:30;16.30;99.90
63537;DHT22;49686;51.880;5.632;2023-08-01T05:40:57;16.30;99.90
63537;DHT22;49686;51.880;5.632;2023-08-01T05:43:24;16.30;99.90
63537;DHT22;49686;51.880;5.632;2023-08-01T05:45:50;16.30;99.90
63537;DHT22;49686;51.880;5.632;2023-08-01T05:48:20;16.60;99.90
63537;DHT22;49686;51.880;5.632;2023-08-01T05:50:47;16.70;99.90
63537;DHT22;49686;51.880;5.632;2023-08-01T05:53:14;16.90;99.90
63537;DHT22;49686;51.880;5.632;2023-08-01T05:55:42;17.20;99.90
63537;DHT22;49686;51.880;5.632;2023-08-01T05:58:09;17.20;99.90
63537;DHT22;49686;51.880;5.632;2023-08-01T06:00:36;17.10;99.90
63537;DHT22;49686;51.880;5.632;2023-08-01T06:03:03;17.00;99.90
63537;DHT22;49686;51.880;5.632;2023-08-01T06:05:30;16.70;99.90
63537;DHT22;49686;51.880;5.632;2023-08-01T06:07:57;16.70;99.90
63537;DHT22;49686;51.880;5.632;2023-08-01T06:10:24;16.50;99.90
63537;DHT22;49686;51.880;5.632;2023-08-01T06:12:52;16.40;99.90
63537;DHT22;49686;51.880;5.632;2023-08-01T06:15:19;16.40;99.90
63537;DHT22;49686;51.880;5.632;2023-08-01T06:17:46;16.50;99.90
63537;DHT22;49686;51.880;5.632;2023-08-01T06:20:13;16.50;99.90
63537;DHT22;49686;51.880;5.632;2023-08-01T06:22:40;16.60;99.90
63537;DHT22;49686;51.880;5.632;2023-08-01T06:25:08;16.70;99.90
63537;DHT22;49686;51.880;5.632;2023-08-01T06:27:35;16.60;99.90
63537;DHT22;49686;51.880;5.632;2023-08-01T06:30:03;16.80;99.90
63537;DHT22;49686;51.880;5.632;2023-08-01T06:32:33;16.80;99.90
63537;DHT22;49686;51.880;5.632;2023-08-01T06:35:00;16.60;99.90
63537;DHT22;49686;51.880;5.632;2023-08-01T06:37:26;16.60;99.90
63537;DHT22;49686;51.880;5.632;2023-08-01T06:39:54;16.70;99.90
63537;DHT22;49686;51.880;5.632;2023-08-01T06:42:21;16.90;99.90
63537;DHT22;49686;51.880;5.632;2023-08-01T06:44:47;17.20;99.90
63537;DHT22;49686;51.880;5.632;2023-08-01T06:47:16;17.70;99.90
63537;DHT22;49686;51.880;5.632;2023-08-01T06:49:44;18.10;99.90
63537;DHT22;49686;51.880;5.632;2023-08-01T06:52:11;18.20;99.90
63537;DHT22;49686;51.880;5.632;2023-08-01T06:54:37;18.20;99.90
63537;DHT22;49686;51.880;5.632;2023-08-01T06:57:06;18.20;99.90
63537;DHT22;49686;51.880;5.632;2023-08-01T06:59:32;18.10;99.90
63537;DHT22;49686;51.880;5.632;2023-08-01T07:02:00;18.80;99.90
63537;DHT22;49686;51.880;5.632;2023-08-01T07:04:31;19.60;99.90
63537;DHT22;49686;51.880;5.632;2023-08-01T07:06:57;20.30;99.90
63537;DHT22;49686;51.880;5.632;2023-08-01T07:09:24;20.90;99.90
63537;DHT22;49686;51.880;5.632;2023-08-01T07:11:51;20.50;99.90
63537;DHT22;49686;51.880;5.632;2023-08-01T07:14:18;20.00;99.90
63537;DHT22;49686;51.880;5.632;2023-08-01T07:16:45;20.10;99.90
63537;DHT22;49686;51.880;5.632;2023-08-01T07:19:11;20.90;99.90
63537;DHT22;49686;51.880;5.632;2023-08-01T07:21:39;21.40;99.90
63537;DHT22;49686;51.880;5.632;2023-08-01T07:24:06;20.70;99.90
63537;DHT22;49686;51.880;5.632;2023-08-01T07:26:33;21.10;99.90
63537;DHT22;49686;51.880;5.632;2023-08-01T07:29:00;21.40;99.90
63537;DHT22;49686;51.880;5.632;2023-08-01T07:31:27;21.00;99.90
63537;DHT22;49686;51.880;5.632;2023-08-01T07:33:54;21.50;99.90
63537;DHT22;49686;51.880;5.632;2023-08-01T07:36:20;21.80;99.90
63537;DHT22;49686;51.880;5.632;2023-08-01T07:38:49;21.10;99.90
63537;DHT22;49686;51.880;5.632;2023-08-01T07:41:15;20.60;99.90
63537;DHT22;49686;51.880;5.632;2023-08-01T07:43:42;19.90;99.90
63537;DHT22;49686;51.880;5.632;2023-08-01T07:46:09;19.40;99.90
63537;DHT22;49686;51.880;5.632;2023-08-01T07:48:36;19.10;99.90
63537;DHT22;49686;51.880;5.632;2023-08-01T07:51:03;19.30;99.90
63537;DHT22;49686;51.880;5.632;2023-08-01T07:53:30;19.50;99.90
63537;DHT22;49686;51.880;5.632;2023-08-01T07:55:58;19.80;99.90
63537;DHT22;49686;51.880;5.632;2023-08-01T07:58:24;19.90;99.90
63537;DHT22;49686;51.880;5.632;2023-08-01T08:00:51;20.50;99.90
63537;DHT22;49686;51.880;5.632;2023-08-01T08:03:18;21.00;99.90
63537;DHT22;49686;51.880;5.632;2023-08-01T08:05:45;21.40;99.90
63537;DHT22;49686;51.880;5.632;2023-08-01T08:08:12;21.40;99.90
63537;DHT22;49686;51.880;5.632;2023-08-01T08:10:39;21.50;99.90
63537;DHT22;49686;51.880;5.632;2023-08-01T08:13:10;21.00;99.90
63537;DHT22;49686;51.880;5.632;2023-08-01T08:15:37;20.60;99.90
63537;DHT22;49686;51.880;5.632;2023-08-01T08:18:04;20.40;99.90
63537;DHT22;49686;51.880;5.632;2023-08-01T08:20:40;20.10;99.90
63537;DHT22;49686;51.880;5.632;2023-08-01T08:23:08;18.70;99.90
63537;DHT22;49686;51.880;5.632;2023-08-01T08:25:34;17.80;99.90
63537;DHT22;49686;51.880;5.632;2023-08-01T08:28:01;18.20;99.90
63537;DHT22;49686;51.880;5.632;2023-08-01T08:30:30;18.80;99.90
63537;DHT22;49686;51.880;5.632;2023-08-01T08:32:57;19.30;99.90
63537;DHT22;49686;51.880;5.632;2023-08-01T08:35:24;19.80;99.90
63537;DHT22;49686;51.880;5.632;2023-08-01T08:37:51;20.40;99.90
63537;DHT22;49686;51.880;5.632;2023-08-01T08:40:18;20.80;99.90
63537;DHT22;49686;51.880;5.632;2023-08-01T08:42:45;20.70;99.90
63537;DHT22;49686;51.880;5.632;2023-08-01T08:45:14;20.40;99.90
63537;DHT22;49686;51.880;5.632;2023-08-01T08:47:51;20.70;99.90
63537;DHT22;49686;51.880;5.632;2023-08-01T08:50:20;20.70;99.90
63537;DHT22;49686;51.880;5.632;2023-08-01T08:52:48;20.70;99.90
63537;DHT22;49686;51.880;5.632;2023-08-01T08:55:15;20.50;99.90
63537;DHT22;49686;51.880;5.632;2023-08-01T08:57:42;20.70;99.90
63537;DHT22;49686;51.880;5.632;2023-08-01T09:00:11;21.10;99.90
63537;DHT22;49686;51.880;5.632;2023-08-01T09:02:38;21.40;99.90
63537;DHT22;49686;51.880;5.632;2023-08-01T09:05:06;21.50;99.90
63537;DHT22;49686;51.880;5.632;2023-08-01T09:07:35;21.60;99.90
63537;DHT22;49686;51.880;5.632;2023-08-01T09:10:06;22.10;99.90
63537;DHT22;49686;51.880;5.632;2023-08-01T09:12:34;22.10;99.90
63537;DHT22;49686;51.880;5.632;2023-08-01T09:15:01;21.70;99.90
63537;DHT22;49686;51.880;5.632;2023-08-01T09:17:28;21.70;99.90
63537;DHT22;49686;51.880;5.632;2023-08-01T09:19:55;21.50;99.90
63537;DHT22;49686;51.880;5.632;2023-08-01T09:22:24;21.20;99.90
63537;DHT22;49686;51.880;5.632;2023-08-01T09:24:51;21.00;99.90
63537;DHT22;49686;51.880;5.632;2023-08-01T09:27:21;20.10;99.90
63537;DHT22;49686;51.880;5.632;2023-08-01T09:29:47;20.00;99.90
63537;DHT22;49686;51.880;5.632;2023-08-01T09:32:15;19.80;99.90
63537;DHT22;49686;51.880;5.632;2023-08-01T09:34:42;19.90;99.90
63537;DHT22;49686;51.880;5.632;2023-08-01T09:37:09;20.30;99.90
63537;DHT22;49686;51.880;5.632;2023-08-01T09:39:37;20.80;99.90
63537;DHT22;49686;51.880;5.632;2023-08-01T09:42:04;21.00;99.90
63537;DHT22;49686;51.880;5.632;2023-08-01T09:44:33;21.20;99.90
63537;DHT22;49686;51.880;5.632;2023-08-01T09:47:02;21.20;99.90
63537;DHT22;49686;51.880;5.632;2023-08-01T09:49:30;20.80;99.90
63537;DHT22;49686;51.880;5.632;2023-08-01T09:51:58;19.90;99.90
63537;DHT22;49686;51.880;5.632;2023-08-01T09:54:25;19.20;99.90
63537;DHT22;49686;51.880;5.632;2023-08-01T09:56:54;19.10;99.90
63537;DHT22;49686;51.880;5.632;2023-08-01T09:59:22;19.00;99.90
63537;DHT22;49686;51.880;5.632;2023-08-01T10:01:51;18.90;99.90
63537;DHT22;49686;51.880;5.632;2023-08-01T10:04:19;19.00;99.90
63537;DHT22;49686;51.880;5.632;2023-08-01T10:06:51;19.30;99.90
63537;DHT22;49686;51.880;5.632;2023-08-01T10:09:21;19.60;99.90
63537;DHT22;49686;51.880;5.632;2023-08-01T10:11:49;19.30;99.90
63537;DHT22;49686;51.880;5.632;2023-08-01T10:14:19;19.30;99.90
63537;DHT22;49686;51.880;5.632;2023-08-01T10:16:47;19.70;99.90
63537;DHT22;49686;51.880;5.632;2023-08-01T10:19:14;20.00;99.90
63537;DHT22;49686;51.880;5.632;2023-08-01T10:21:41;20.40;99.90
63537;DHT22;49686;51.880;5.632;2023-08-01T10:24:08;20.70;99.90
63537;DHT22;49686;51.880;5.632;2023-08-01T10:26:36;21.30;99.90
63537;DHT22;49686;51.880;5.632;2023-08-01T10:29:03;21.90;99.90
63537;DHT22;49686;51.880;5.632;2023-08-01T10:31:31;22.10;99.90
63537;DHT22;49686;51.880;5.632;2023-08-01T10:34:05;22.60;99.90
63537;DHT22;49686;51.880;5.632;2023-08-01T10:36:33;22.10;99.90
63537;DHT22;49686;51.880;5.632;2023-08-01T10:39:01;21.70;99.90
63537;DHT22;49686;51.880;5.632;2023-08-01T10:41:29;20.90;99.90
63537;DHT22;49686;51.880;5.632;2023-08-01T10:44:07;20.50;99.90
63537;DHT22;49686;51.880;5.632;2023-08-01T10:46:49;20.50;99.90
63537;DHT22;49686;51.880;5.632;2023-08-01T10:49:17;20.80;99.90
63537;DHT22;49686;51.880;5.632;2023-08-01T10:51:44;21.20;99.90
63537;DHT22;49686;51.880;5.632;2023-08-01T10:54:19;21.80;99.90
63537;DHT22;49686;51.880;5.632;2023-08-01T10:56:45;22.30;99.90
63537;DHT22;49686;51.880;5.632;2023-08-01T10:59:13;21.70;99.90
63537;DHT22;49686;51.880;5.632;2023-08-01T11:01:44;21.40;99.90
63537;DHT22;49686;51.880;5.632;2023-08-01T11:04:16;21.10;99.90
63537;DHT22;49686;51.880;5.632;2023-08-01T11:06:45;20.70;99.90
63537;DHT22;49686;51.880;5.632;2023-08-01T11:09:16;20.30;99.90
63537;DHT22;49686;51.880;5.632;2023-08-01T11:11:43;20.30;99.90
63537;DHT22;49686;51.880;5.632;2023-08-01T11:14:11;20.70;99.90
63537;DHT22;49686;51.880;5.632;2023-08-01T11:16:38;21.00;99.90
63537;DHT22;49686;51.880;5.632;2023-08-01T11:19:17;21.80;99.90
63537;DHT22;49686;51.880;5.632;2023-08-01T11:21:45;22.10;99.90
63537;DHT22;49686;51.880;5.632;2023-08-01T11:24:12;22.80;99.90
63537;DHT22;49686;51.880;5.632;2023-08-01T11:26:41;23.50;99.90
63537;DHT22;49686;51.880;5.632;2023-08-01T11:29:10;23.80;99.90
63537;DHT22;49686;51.880;5.632;2023-08-01T11:31:37;23.20;99.90
63537;DHT22;49686;51.880;5.632;2023-08-01T11:34:04;22.90;99.90
63537;DHT22;49686;51.880;5.632;2023-08-01T11:36:31;22.90;99.90
63537;DHT22;49686;51.880;5.632;2023-08-01T11:39:00;22.40;99.90
63537;DHT22;49686;51.880;5.632;2023-08-01T11:41:28;22.80;99.90
63537;DHT22;49686;51.880;5.632;2023-08-01T11:43:55;22.80;99.90
63537;DHT22;49686;51.880;5.632;2023-08-01T11:46:29;23.00;99.90
63537;DHT22;49686;51.880;5.632;2023-08-01T11:48:57;23.50;99.90
63537;DHT22;49686;51.880;5.632;2023-08-01T11:51:25;23.90;99.90
63537;DHT22;49686;51.880;5.632;2023-08-01T11:54:00;24.30;99.90
63537;DHT22;49686;51.880;5.632;2023-08-01T11:56:27;24.40;99.90
63537;DHT22;49686;51.880;5.632;2023-08-01T11:58:54;24.00;99.90
63537;DHT22;49686;51.880;5.632;2023-08-01T12:01:21;23.20;99.90
63537;DHT22;49686;51.880;5.632;2023-08-01T12:03:50;22.60;99.90
63537;DHT22;49686;51.880;5.632;2023-08-01T12:06:19;22.20;99.90
63537;DHT22;49686;51.880;5.632;2023-08-01T12:08:46;21.90;99.90
63537;DHT22;49686;51.880;5.632;2023-08-01T12:11:22;21.80;99.90
63537;DHT22;49686;51.880;5.632;2023-08-01T12:14:00;21.60;99.90
63537;DHT22;49686;51.880;5.632;2023-08-01T12:16:29;21.30;99.90
63537;DHT22;49686;51.880;5.632;2023-08-01T12:18:56;21.20;99.90
63537;DHT22;49686;51.880;5.632;2023-08-01T12:21:27;21.20;99.90
63537;DHT22;49686;51.880;5.632;2023-08-01T12:23:54;21.10;99.90
63537;DHT22;49686;51.880;5.632;2023-08-01T12:26:22;20.80;99.90
63537;DHT22;49686;51.880;5.632;2023-08-01T12:28:49;20.60;99.90
63537;DHT22;49686;51.880;5.632;2023-08-01T12:31:16;20.50;99.90
63537;DHT22;49686;51.880;5.632;2023-08-01T12:33:43;20.40;99.90
63537;DHT22;49686;51.880;5.632;2023-08-01T12:36:10;20.10;99.90
63537;DHT22;49686;51.880;5.632;2023-08-01T12:38:37;20.20;99.90
63537;DHT22;49686;51.880;5.632;2023-08-01T12:41:04;20.10;99.90
63537;DHT22;49686;51.880;5.632;2023-08-01T12:43:33;20.20;99.90
63537;DHT22;49686;51.880;5.632;2023-08-01T12:45:59;20.20;99.90
63537;DHT22;49686;51.880;5.632;2023-08-01T12:48:27;20.10;99.90
63537;DHT22;49686;51.880;5.632;2023-08-01T12:50:55;20.30;99.90
63537;DHT22;49686;51.880;5.632;2023-08-01T12:53:22;20.60;99.90
63537;DHT22;49686;51.880;5.632;2023-08-01T12:55:51;20.90;99.90
63537;DHT22;49686;51.880;5.632;2023-08-01T12:58:18;20.90;99.90
63537;DHT22;49686;51.880;5.632;2023-08-01T13:00:46;21.00;99.90
63537;DHT22;49686;51.880;5.632;2023-08-01T13:03:13;20.60;99.90
63537;DHT22;49686;51.880;5.632;2023-08-01T13:05:41;20.00;99.90
63537;DHT22;49686;51.880;5.632;2023-08-01T13:08:09;19.50;99.90
63537;DHT22;49686;51.880;5.632;2023-08-01T13:10:37;18.90;99.90
63537;DHT22;49686;51.880;5.632;2023-08-01T13:13:04;18.70;99.90
63537;DHT22;49686;51.880;5.632;2023-08-01T13:15:30;18.70;99.90
63537;DHT22;49686;51.880;5.632;2023-08-01T13:17:58;19.00;99.90
63537;DHT22;49686;51.880;5.632;2023-08-01T13:20:25;19.70;99.90
63537;DHT22;49686;51.880;5.632;2023-08-01T13:22:56;20.60;99.90
63537;DHT22;49686;51.880;5.632;2023-08-01T13:25:22;21.30;99.90
63537;DHT22;49686;51.880;5.632;2023-08-01T13:27:49;21.60;99.90
63537;DHT22;49686;51.880;5.632;2023-08-01T13:30:16;21.80;99.90
63537;DHT22;49686;51.880;5.632;2023-08-01T13:32:43;21.80;99.90
63537;DHT22;49686;51.880;5.632;2023-08-01T13:35:12;21.60;99.90
63537;DHT22;49686;51.880;5.632;2023-08-01T13:37:39;21.30;99.90
63537;DHT22;49686;51.880;5.632;2023-08-01T13:40:07;21.00;99.90
63537;DHT22;49686;51.880;5.632;2023-08-01T13:42:34;21.00;99.90
63537;DHT22;49686;51.880;5.632;2023-08-01T13:45:01;20.90;99.90
63537;DHT22;49686;51.880;5.632;2023-08-01T13:47:28;20.50;99.90
63537;DHT22;49686;51.880;5.632;2023-08-01T13:49:56;20.30;99.90
63537;DHT22;49686;51.880;5.632;2023-08-01T13:52:24;20.10;99.90
63537;DHT22;49686;51.880;5.632;2023-08-01T13:54:51;19.90;99.90
63537;DHT22;49686;51.880;5.632;2023-08-01T13:57:17;20.00;99.90
63537;DHT22;49686;51.880;5.632;2023-08-01T13:59:47;20.20;99.90
63537;DHT22;49686;51.880;5.632;2023-08-01T14:02:27;20.30;99.90
63537;DHT22;49686;51.880;5.632;2023-08-01T14:04:54;20.50;99.90
63537;DHT22;49686;51.880;5.632;2023-08-01T14:07:21;20.70;99.90
63537;DHT22;49686;51.880;5.632;2023-08-01T14:09:49;20.80;99.90
63537;DHT22;49686;51.880;5.632;2023-08-01T14:12:16;21.20;99.90
63537;DHT22;49686;51.880;5.632;2023-08-01T14:14:43;21.70;99.90
63537;DHT22;49686;51.880;5.632;2023-08-01T14:17:10;22.20;99.90
63537;DHT22;49686;51.880;5.632;2023-08-01T14:19:37;22.00;99.90
63537;DHT22;49686;51.880;5.632;2023-08-01T14:22:04;21.80;99.90
63537;DHT22;49686;51.880;5.632;2023-08-01T14:24:31;22.00;99.90
63537;DHT22;49686;51.880;5.632;2023-08-01T14:26:59;22.10;99.90
63537;DHT22;49686;51.880;5.632;2023-08-01T14:29:26;21.60;99.90
63537;DHT22;49686;51.880;5.632;2023-08-01T14:31:53;21.40;99.90
63537;DHT22;49686;51.880;5.632;2023-08-01T14:34:20;21.90;99.90
63537;DHT22;49686;51.880;5.632;2023-08-01T14:36:47;21.90;99.90
63537;DHT22;49686;51.880;5.632;2023-08-01T14:39:13;22.00;99.90
63537;DHT22;49686;51.880;5.632;2023-08-01T14:41:49;21.50;99.90
63537;DHT22;49686;51.880;5.632;2023-08-01T14:44:20;21.70;99.90
63537;DHT22;49686;51.880;5.632;2023-08-01T14:46:47;21.80;99.90
63537;DHT22;49686;51.880;5.632;2023-08-01T14:49:15;21.80;99.90
63537;DHT22;49686;51.880;5.632;2023-08-01T14:51:42;21.90;99.90
63537;DHT22;49686;51.880;5.632;2023-08-01T14:54:09;22.00;99.90
63537;DHT22;49686;51.880;5.632;2023-08-01T14:56:35;21.80;99.90
63537;DHT22;49686;51.880;5.632;2023-08-01T15:00:11;21.90;99.90
63537;DHT22;49686;51.880;5.632;2023-08-01T15:02:40;21.80;99.90
63537;DHT22;49686;51.880;5.632;2023-08-01T15:05:07;21.80;99.90
63537;DHT22;49686;51.880;5.632;2023-08-01T15:07:34;22.20;99.90
63537;DHT22;49686;51.880;5.632;2023-08-01T15:10:05;21.60;99.90
63537;DHT22;49686;51.880;5.632;2023-08-01T15:12:32;21.60;99.90
63537;DHT22;49686;51.880;5.632;2023-08-01T15:14:59;21.40;99.90
63537;DHT22;49686;51.880;5.632;2023-08-01T15:17:27;21.40;99.90
63537;DHT22;49686;51.880;5.632;2023-08-01T15:19:54;21.50;99.90
63537;DHT22;49686;51.880;5.632;2023-08-01T15:22:21;21.50;99.90
63537;DHT22;49686;51.880;5.632;2023-08-01T15:24:48;21.20;99.90
63537;DHT22;49686;51.880;5.632;2023-08-01T15:27:16;21.20;99.90
63537;DHT22;49686;51.880;5.632;2023-08-01T15:29:46;21.20;99.90
63537;DHT22;49686;51.880;5.632;2023-08-01T15:32:13;21.20;99.90
63537;DHT22;49686;51.880;5.632;2023-08-01T15:34:41;21.40;99.90